createdAt,value
2023-02-16T00:01:28.806Z,34.65
2023-02-16T00:03:58.151Z,34.91
2023-02-16T00:06:27.698Z,34.73
2023-02-16T00:08:57.579Z,34.75
2023-02-16T00:11:47.526Z,34.34
2023-02-16T00:14:16.366Z,34.69
2023-02-16T00:16:44.870Z,34.68
2023-02-16T00:19:19.934Z,34.08
2023-02-16T00:21:48.604Z,34.68
2023-02-16T00:24:17.712Z,34.69
2023-02-16T00:26:47.805Z,34.50
2023-02-16T00:29:21.450Z,34.70
2023-02-16T00:31:50.521Z,34.91
2023-02-16T00:34:38.020Z,34.15
2023-02-16T00:37:08.048Z,34.66
2023-02-16T00:39:37.761Z,34.64
2023-02-16T00:42:11.632Z,34.53
2023-02-16T00:44:43.654Z,34.73
2023-02-16T00:47:20.254Z,34.65
2023-02-16T00:49:50.326Z,34.93
2023-02-16T00:52:33.758Z,34.11
2023-02-16T00:55:04.701Z,35.00
2023-02-16T00:57:37.678Z,34.81
2023-02-16T01:00:13.322Z,34.51
2023-02-16T01:02:42.350Z,34.87
2023-02-16T01:05:11.607Z,34.97
2023-02-16T01:07:56.871Z,35.24
2023-02-16T01:10:44.266Z,34.98
2023-02-16T01:13:14.086Z,35.06
2023-02-16T01:15:43.979Z,35.16
2023-02-16T01:18:14.333Z,34.49
2023-02-16T01:20:42.909Z,34.78
2023-02-16T01:23:11.340Z,34.89
2023-02-16T01:25:41.387Z,34.75
2023-02-16T01:28:19.391Z,34.37
2023-02-16T01:30:48.182Z,34.88
2023-02-16T01:33:16.749Z,34.87
2023-02-16T01:35:45.791Z,34.97
2023-02-16T01:38:18.727Z,34.67
2023-02-16T01:40:53.664Z,34.64
2023-02-16T01:43:26.107Z,34.57
2023-02-16T01:46:00.651Z,34.78
2023-02-16T01:48:30.343Z,35.19
2023-02-16T01:51:04.788Z,34.98
2023-02-16T01:53:35.297Z,34.96
2023-02-16T01:56:07.601Z,35.11
2023-02-16T01:58:42.343Z,34.96
2023-02-16T02:01:36.464Z,34.52
2023-02-16T02:04:29.902Z,35.47
2023-02-16T02:06:58.701Z,35.75
2023-02-16T02:09:30.340Z,35.60
2023-02-16T02:12:03.284Z,35.51
2023-02-16T02:14:37.411Z,35.57
2023-02-16T02:17:10.360Z,35.32
2023-02-16T02:19:45.987Z,35.71
2023-02-16T02:23:00.010Z,35.51
2023-02-16T02:25:48.789Z,35.71
2023-02-16T02:28:21.329Z,36.17
2023-02-16T02:30:55.532Z,35.73
2023-02-16T02:33:42.923Z,35.56
2023-02-16T02:36:21.635Z,35.73
2023-02-16T02:39:00.094Z,35.86
2023-02-16T02:41:52.246Z,36.20
2023-02-16T02:44:24.405Z,36.27
2023-02-16T02:46:53.288Z,36.42
2023-02-16T02:49:22.132Z,36.36
2023-02-16T02:51:51.134Z,36.44
2023-02-16T02:54:39.638Z,36.43
2023-02-16T02:57:27.844Z,36.46
2023-02-16T03:00:17.963Z,36.39
2023-02-16T03:02:48.525Z,36.53
2023-02-16T03:05:18.325Z,36.73
2023-02-16T03:07:48.207Z,36.44
2023-02-16T03:10:36.396Z,36.74
2023-02-16T03:13:06.052Z,36.59
2023-02-16T03:15:36.600Z,36.53
2023-02-16T03:18:24.244Z,36.49
2023-02-16T03:21:11.299Z,36.69
2023-02-16T03:23:58.893Z,36.40
2023-02-16T03:26:46.184Z,36.19
2023-02-16T03:29:18.752Z,36.17
2023-02-16T03:31:50.456Z,36.50
2023-02-16T03:34:19.994Z,36.68
2023-02-16T03:36:50.279Z,36.85
2023-02-16T03:39:19.261Z,36.77
2023-02-16T03:41:50.541Z,36.55
2023-02-16T03:44:19.026Z,36.51
2023-02-16T03:46:50.020Z,36.76
2023-02-16T03:49:19.236Z,36.89
2023-02-16T03:51:47.988Z,37.05
2023-02-16T03:54:16.449Z,36.88
2023-02-16T03:56:45.238Z,36.75
2023-02-16T03:59:13.512Z,36.21
2023-02-16T04:01:42.287Z,36.69
2023-02-16T04:04:12.102Z,36.49
2023-02-16T04:06:40.692Z,36.55
2023-02-16T04:09:09.785Z,36.62
2023-02-16T04:11:55.586Z,36.57
2023-02-16T04:14:24.308Z,36.59
2023-02-16T04:16:52.896Z,36.62
2023-02-16T04:19:25.007Z,36.20
2023-02-16T04:21:54.099Z,36.14
2023-02-16T04:24:23.006Z,36.27
2023-02-16T04:26:51.318Z,36.05
2023-02-16T04:29:20.205Z,35.99
2023-02-16T04:31:50.105Z,36.10
2023-02-16T04:34:18.802Z,35.96
2023-02-16T04:36:48.790Z,36.13
2023-02-16T04:39:17.642Z,36.19
2023-02-16T04:41:46.169Z,36.46
2023-02-16T04:44:14.926Z,36.26
2023-02-16T04:46:43.191Z,36.49
2023-02-16T04:49:12.162Z,36.31
2023-02-16T04:51:40.593Z,36.20
2023-02-16T04:54:10.883Z,36.13
2023-02-16T04:56:39.281Z,36.36
2023-02-16T04:59:08.667Z,36.38
2023-02-16T05:01:37.692Z,36.31
2023-02-16T05:04:06.502Z,36.43
2023-02-16T05:06:35.332Z,36.44
2023-02-16T05:09:04.233Z,36.79
2023-02-16T05:11:51.615Z,36.43
2023-02-16T05:14:41.540Z,36.61
2023-02-16T05:17:11.205Z,36.62
2023-02-16T05:19:39.835Z,36.72
2023-02-16T05:22:09.372Z,36.91
2023-02-16T05:24:38.624Z,37.02
2023-02-16T05:27:10.516Z,36.79
2023-02-16T05:29:39.308Z,36.98
2023-02-16T05:32:07.721Z,37.05
2023-02-16T05:34:36.812Z,36.80
2023-02-16T05:37:05.267Z,36.55
2023-02-16T05:39:34.076Z,36.38
2023-02-16T05:42:02.547Z,37.00
2023-02-16T05:44:32.657Z,37.08
2023-02-16T05:47:01.141Z,37.30
2023-02-16T05:49:29.719Z,37.42
2023-02-16T05:51:58.401Z,37.25
2023-02-16T05:54:28.249Z,37.28
2023-02-16T05:56:56.904Z,37.24
2023-02-16T05:59:25.698Z,37.38
2023-02-16T06:01:55.651Z,37.27
2023-02-16T06:04:24.276Z,37.25
2023-02-16T06:06:52.678Z,37.30
2023-02-16T06:09:21.824Z,37.28
2023-02-16T06:11:50.187Z,37.33
2023-02-16T06:14:21.229Z,37.14
2023-02-16T06:16:51.715Z,36.97
2023-02-16T06:19:22.118Z,36.97
2023-02-16T06:21:50.577Z,36.84
2023-02-16T06:24:19.163Z,36.44
2023-02-16T06:26:47.570Z,35.95
2023-02-16T06:29:16.723Z,35.75
2023-02-16T06:31:45.284Z,35.25
2023-02-16T06:34:13.983Z,35.22
2023-02-16T06:36:43.926Z,34.72
2023-02-16T06:39:12.857Z,34.83
2023-02-16T06:41:41.321Z,34.40
2023-02-16T06:44:13.584Z,34.30
2023-02-16T06:46:43.207Z,33.81
2023-02-16T06:49:13.430Z,33.14
2023-02-16T06:51:43.411Z,32.60
2023-02-16T06:54:12.221Z,31.88
2023-02-16T06:56:40.704Z,31.28
2023-02-16T06:59:09.808Z,30.74
2023-02-16T07:01:38.070Z,30.50
2023-02-16T07:04:07.299Z,29.04
2023-02-16T07:06:35.614Z,28.62
2023-02-16T07:09:06.028Z,27.73
2023-02-16T07:11:34.666Z,27.63
2023-02-16T07:14:03.552Z,26.72
2023-02-16T07:16:32.094Z,26.90
2023-02-16T07:19:01.655Z,26.22
2023-02-16T07:21:30.270Z,25.11
2023-02-16T07:23:58.964Z,24.30
2023-02-16T07:26:29.164Z,23.17
2023-02-16T07:28:57.856Z,23.22
2023-02-16T07:31:26.893Z,22.67
2023-02-16T07:33:55.704Z,22.70
2023-02-16T07:36:24.130Z,22.45
2023-02-16T07:38:53.993Z,22.43
2023-02-16T07:41:22.790Z,21.83
2023-02-16T07:43:53.574Z,21.31
2023-02-16T07:46:21.988Z,21.11
2023-02-16T07:48:50.706Z,20.92
2023-02-16T07:51:23.171Z,20.29
2023-02-16T07:53:52.162Z,19.62
2023-02-16T07:56:21.643Z,19.25
2023-02-16T07:58:50.215Z,19.01
2023-02-16T08:01:20.464Z,18.43
2023-02-16T08:03:49.167Z,18.45
2023-02-16T08:06:18.531Z,18.23
2023-02-16T08:08:48.096Z,17.95
2023-02-16T08:11:18.053Z,17.43
2023-02-16T08:13:46.963Z,17.14
2023-02-16T08:16:17.171Z,16.83
2023-02-16T08:18:47.525Z,16.99
2023-02-16T08:21:17.311Z,17.11
2023-02-16T08:23:47.787Z,16.85
2023-02-16T08:26:18.540Z,16.35
2023-02-16T08:28:50.392Z,15.42
2023-02-16T08:31:20.756Z,15.25
2023-02-16T08:33:51.178Z,15.54
2023-02-16T08:36:20.981Z,15.44
2023-02-16T08:38:52.178Z,15.81
2023-02-16T08:41:22.116Z,16.32
2023-02-16T08:43:51.455Z,15.80
2023-02-16T08:46:20.086Z,15.41
2023-02-16T08:48:50.389Z,14.53
2023-02-16T08:51:20.485Z,14.28
2023-02-16T08:53:49.602Z,14.33
2023-02-16T08:56:18.019Z,14.38
2023-02-16T08:58:47.008Z,13.88
2023-02-16T09:01:16.613Z,13.49
2023-02-16T09:03:47.384Z,13.07
2023-02-16T09:06:20.463Z,12.92
2023-02-16T09:08:52.705Z,12.82
2023-02-16T09:11:21.870Z,13.62
2023-02-16T09:13:51.650Z,13.73
2023-02-16T09:16:22.810Z,13.48
2023-02-16T09:18:51.429Z,12.40
2023-02-16T09:21:23.593Z,12.64
2023-02-16T09:23:54.206Z,12.02
2023-02-16T09:26:24.578Z,11.77
2023-02-16T09:28:54.037Z,11.22
2023-02-16T09:31:27.433Z,10.61
2023-02-16T09:33:58.555Z,10.52
2023-02-16T09:36:29.008Z,10.89
2023-02-16T09:38:58.527Z,11.21
2023-02-16T09:41:36.828Z,10.79
2023-02-16T09:44:15.723Z,10.76
2023-02-16T09:46:44.802Z,10.74
2023-02-16T09:49:22.398Z,10.50
2023-02-16T09:52:00.364Z,10.43
2023-02-16T09:54:35.904Z,10.45
2023-02-16T09:57:09.248Z,10.77
2023-02-16T09:59:44.924Z,10.83
2023-02-16T10:02:40.618Z,10.85
2023-02-16T10:05:18.723Z,10.64
2023-02-16T10:07:59.139Z,10.13
2023-02-16T10:10:33.046Z,10.38
2023-02-16T10:13:05.366Z,10.11
2023-02-16T10:15:34.893Z,10.14
2023-02-16T10:18:09.278Z,9.52
2023-02-16T10:20:40.078Z,9.49
2023-02-16T10:23:16.681Z,8.87
2023-02-16T10:25:48.944Z,9.10
2023-02-16T10:28:21.789Z,9.06
2023-02-16T10:30:54.013Z,8.72
2023-02-16T10:33:34.304Z,8.44
2023-02-16T10:36:05.402Z,8.33
2023-02-16T10:38:37.950Z,7.90
2023-02-16T10:41:14.632Z,8.11
2023-02-16T10:43:46.797Z,8.14
2023-02-16T10:46:21.356Z,7.72
2023-02-16T10:48:50.634Z,8.10
2023-02-16T10:51:19.944Z,7.80
2023-02-16T10:53:54.815Z,7.05
2023-02-16T10:56:34.854Z,7.57
2023-02-16T10:59:05.615Z,8.23
2023-02-16T11:01:38.750Z,8.70
2023-02-16T11:04:08.120Z,8.62
2023-02-16T11:06:36.814Z,8.25
2023-02-16T11:09:07.978Z,8.40
2023-02-16T11:11:37.288Z,8.03
2023-02-16T11:14:09.052Z,8.32
2023-02-16T11:16:37.794Z,8.19
2023-02-16T11:19:09.073Z,7.83
2023-02-16T11:21:47.422Z,8.22
2023-02-16T11:24:28.032Z,8.73
2023-02-16T11:27:05.292Z,8.65
2023-02-16T11:29:35.809Z,8.73
2023-02-16T11:32:10.131Z,8.99
2023-02-16T11:34:42.570Z,9.47
2023-02-16T11:37:16.472Z,9.50
2023-02-16T11:39:52.241Z,9.88
2023-02-16T11:42:28.644Z,9.92
2023-02-16T11:44:58.851Z,9.32
2023-02-16T11:47:29.649Z,9.37
2023-02-16T11:50:20.140Z,9.55
2023-02-16T11:52:49.941Z,9.91
2023-02-16T11:55:27.126Z,9.50
2023-02-16T11:57:57.311Z,9.28
2023-02-16T12:00:28.174Z,9.25
2023-02-16T12:03:18.394Z,9.67
2023-02-16T12:05:55.967Z,10.25
2023-02-16T12:08:44.882Z,10.61
2023-02-16T12:11:28.739Z,10.84
2023-02-16T12:14:05.951Z,11.54
2023-02-16T12:16:38.461Z,12.16
2023-02-16T12:19:20.664Z,12.95
2023-02-16T12:21:51.419Z,14.10
2023-02-16T12:24:32.103Z,14.61
2023-02-16T12:27:04.900Z,15.58
2023-02-16T12:29:45.940Z,16.07
2023-02-16T12:32:35.366Z,17.01
2023-02-16T12:35:22.588Z,17.44
2023-02-16T12:37:57.284Z,17.84
2023-02-16T12:40:32.045Z,18.29
2023-02-16T12:43:26.598Z,18.68
2023-02-16T12:45:57.930Z,18.88
2023-02-16T12:48:36.816Z,18.99
2023-02-16T12:51:10.267Z,19.48
2023-02-16T12:53:45.135Z,19.23
2023-02-16T12:56:18.632Z,19.49
2023-02-16T12:58:53.655Z,19.34
2023-02-16T13:01:25.614Z,19.39
2023-02-16T13:03:57.071Z,19.45
2023-02-16T13:06:30.717Z,19.41
2023-02-16T13:09:07.577Z,19.68
2023-02-16T13:11:38.623Z,19.96
2023-02-16T13:14:16.089Z,19.97
2023-02-16T13:16:48.103Z,20.53
2023-02-16T13:19:17.168Z,20.42
2023-02-16T13:22:20.326Z,19.88
2023-02-16T13:24:59.620Z,20.25
2023-02-16T13:27:34.440Z,20.54
2023-02-16T13:30:17.451Z,20.55
2023-02-16T13:32:57.997Z,20.95
2023-02-16T13:35:43.135Z,20.78
2023-02-16T13:38:25.822Z,20.97
2023-02-16T13:41:15.069Z,20.49
2023-02-16T13:43:45.150Z,21.20
2023-02-16T13:46:20.012Z,21.07
2023-02-16T13:48:50.846Z,21.09
2023-02-16T13:51:20.926Z,21.38
2023-02-16T13:53:56.685Z,21.36
2023-02-16T13:56:36.405Z,21.78
2023-02-16T13:59:49.603Z,21.90
2023-02-16T14:02:57.475Z,21.71
2023-02-16T14:05:38.488Z,21.75
2023-02-16T14:08:21.418Z,21.95
2023-02-16T14:11:12.369Z,21.92
2023-02-16T14:13:51.101Z,22.07
2023-02-16T14:16:30.275Z,22.08
2023-02-16T14:19:02.851Z,22.55
2023-02-16T14:21:37.911Z,22.52
2023-02-16T14:24:08.749Z,23.00
2023-02-16T14:26:53.532Z,22.59
2023-02-16T14:29:23.841Z,23.25
2023-02-16T14:31:56.822Z,23.17
2023-02-16T14:34:30.200Z,23.45
2023-02-16T14:37:31.018Z,22.80
2023-02-16T14:40:26.950Z,23.12
2023-02-16T14:43:04.946Z,23.42
2023-02-16T14:46:07.118Z,22.97
2023-02-16T14:49:20.740Z,23.00
2023-02-16T14:52:18.725Z,23.26
2023-02-16T14:55:26.243Z,23.33
2023-02-16T14:57:57.661Z,23.65
2023-02-16T15:00:30.693Z,24.11
2023-02-16T15:03:02.154Z,24.37
2023-02-16T15:05:33.057Z,24.32
2023-02-16T15:08:13.052Z,24.18
2023-02-16T15:10:41.600Z,24.97
2023-02-16T15:13:09.990Z,24.70
2023-02-16T15:15:45.970Z,24.82
2023-02-16T15:18:17.982Z,25.39
2023-02-16T15:20:48.488Z,25.21
2023-02-16T15:23:22.971Z,25.05
2023-02-16T15:25:58.238Z,25.22
2023-02-16T15:28:27.835Z,25.52
2023-02-16T15:30:58.391Z,25.89
2023-02-16T15:33:32.644Z,25.65
2023-02-16T15:36:03.234Z,26.05
2023-02-16T15:38:34.318Z,25.95
2023-02-16T15:41:05.180Z,26.18
2023-02-16T15:43:37.656Z,26.33
2023-02-16T15:46:08.841Z,26.28
2023-02-16T15:48:39.128Z,26.33
2023-02-16T15:51:13.527Z,26.45
2023-02-16T15:53:52.025Z,26.44
2023-02-16T15:56:36.230Z,26.25
2023-02-16T15:59:06.738Z,27.04
2023-02-16T16:01:36.423Z,27.08
2023-02-16T16:04:08.436Z,27.53
2023-02-16T16:06:38.851Z,27.63
2023-02-16T16:09:15.418Z,27.43
2023-02-16T16:11:44.274Z,28.07
2023-02-16T16:14:13.075Z,28.10
2023-02-16T16:16:42.097Z,28.30
2023-02-16T16:19:16.712Z,28.10
2023-02-16T16:21:51.720Z,28.06
2023-02-16T16:24:35.207Z,28.17
2023-02-16T16:27:07.121Z,28.57
2023-02-16T16:29:38.308Z,28.69
2023-02-16T16:32:08.256Z,29.06
2023-02-16T16:34:39.152Z,29.04
2023-02-16T16:37:26.824Z,29.26
2023-02-16T16:40:05.592Z,28.50
2023-02-16T16:42:34.796Z,29.21
2023-02-16T16:45:07.418Z,29.59
2023-02-16T16:47:39.633Z,29.91
2023-02-16T16:50:31.696Z,29.00
2023-02-16T16:53:00.327Z,29.86
2023-02-16T16:55:32.506Z,29.65
2023-02-16T16:58:03.433Z,30.21
2023-02-16T17:00:35.386Z,29.92
2023-02-16T17:03:06.051Z,30.12
2023-02-16T17:05:40.071Z,30.00
2023-02-16T17:08:09.083Z,30.44
2023-02-16T17:10:38.945Z,30.23
2023-02-16T17:13:08.322Z,30.54
2023-02-16T17:15:41.094Z,30.18
2023-02-16T17:18:11.560Z,30.56
2023-02-16T17:20:41.378Z,30.40
2023-02-16T17:23:13.186Z,30.42
2023-02-16T17:25:41.619Z,29.46
2023-02-16T17:28:11.414Z,30.80
2023-02-16T17:30:39.948Z,30.77
2023-02-16T17:33:09.680Z,31.14
2023-02-16T17:35:39.775Z,31.08
2023-02-16T17:38:11.016Z,30.99
2023-02-16T17:40:39.909Z,31.50
2023-02-16T17:43:13.166Z,31.12
2023-02-16T17:45:42.193Z,31.35
2023-02-16T17:48:17.038Z,31.05
2023-02-16T17:50:45.721Z,31.18
2023-02-16T17:53:17.399Z,30.93
2023-02-16T17:55:46.923Z,30.36
2023-02-16T17:58:16.317Z,31.34
2023-02-16T18:00:45.157Z,31.62
2023-02-16T18:03:14.021Z,31.77
2023-02-16T18:05:42.382Z,31.62
2023-02-16T18:08:11.898Z,31.74
2023-02-16T18:10:51.014Z,31.44
2023-02-16T18:13:20.332Z,31.73
2023-02-16T18:15:50.380Z,31.67
2023-02-16T18:18:20.304Z,31.48
2023-02-16T18:20:48.793Z,31.72
2023-02-16T18:23:17.653Z,31.85
2023-02-16T18:25:47.522Z,31.75
2023-02-16T18:28:18.958Z,31.84
2023-02-16T18:30:48.285Z,31.80
2023-02-16T18:33:17.292Z,31.95
2023-02-16T18:35:45.757Z,31.61
2023-02-16T18:38:14.640Z,31.97
2023-02-16T18:40:43.103Z,31.97
2023-02-16T18:43:13.267Z,32.04
2023-02-16T18:45:42.658Z,31.96
2023-02-16T18:48:11.357Z,32.29
2023-02-16T18:50:39.759Z,32.17
2023-02-16T18:53:08.952Z,32.08
2023-02-16T18:55:37.494Z,32.07
2023-02-16T18:58:08.508Z,32.09
2023-02-16T19:00:39.165Z,31.90
2023-02-16T19:03:07.862Z,32.18
2023-02-16T19:05:36.538Z,32.23
2023-02-16T19:08:05.487Z,32.45
2023-02-16T19:10:34.176Z,32.28
2023-02-16T19:13:03.459Z,32.34
2023-02-16T19:15:33.368Z,32.60
2023-02-16T19:18:03.435Z,32.72
2023-02-16T19:20:31.812Z,32.81
2023-02-16T19:23:00.561Z,32.59
2023-02-16T19:25:29.457Z,32.75
2023-02-16T19:27:58.177Z,32.92
2023-02-16T19:30:26.405Z,32.82
2023-02-16T19:32:55.324Z,32.79
2023-02-16T19:35:25.025Z,32.80
2023-02-16T19:37:54.063Z,32.87
2023-02-16T19:40:22.592Z,33.23
2023-02-16T19:42:51.276Z,33.09
2023-02-16T19:45:19.911Z,33.09
2023-02-16T19:47:51.389Z,32.77
2023-02-16T19:50:19.885Z,32.85
2023-02-16T19:52:50.158Z,32.92
2023-02-16T19:55:18.662Z,32.97
2023-02-16T19:57:47.242Z,32.83
2023-02-16T20:00:16.097Z,33.14
2023-02-16T20:02:45.009Z,33.17
2023-02-16T20:05:13.772Z,33.09
2023-02-16T20:07:42.527Z,32.78
2023-02-16T20:10:12.403Z,32.85
2023-02-16T20:12:41.059Z,33.02
2023-02-16T20:15:12.492Z,33.55
2023-02-16T20:17:41.118Z,33.37
2023-02-16T20:20:10.101Z,33.30
2023-02-16T20:22:38.879Z,33.40
2023-02-16T20:25:08.339Z,33.32
2023-02-16T20:27:38.977Z,33.20
2023-02-16T20:30:08.714Z,33.00
2023-02-16T20:32:37.489Z,33.15
2023-02-16T20:35:07.895Z,33.22
2023-02-16T20:37:36.709Z,33.43
2023-02-16T20:40:06.481Z,33.49
2023-02-16T20:42:35.156Z,33.55
2023-02-16T20:45:05.353Z,33.26
2023-02-16T20:47:34.594Z,33.29
2023-02-16T20:50:03.297Z,33.45
2023-02-16T20:52:32.084Z,33.49
2023-02-16T20:55:00.559Z,33.20
2023-02-16T20:57:29.205Z,33.42
2023-02-16T20:59:57.520Z,33.44
2023-02-16T21:02:27.659Z,33.27
2023-02-16T21:04:56.155Z,33.25
2023-02-16T21:07:27.874Z,33.42
2023-02-16T21:09:58.683Z,31.97
2023-02-16T21:12:27.354Z,33.22
2023-02-16T21:14:55.688Z,33.36
2023-02-16T21:17:24.435Z,33.61
2023-02-16T21:19:54.463Z,33.35
2023-02-16T21:22:24.759Z,33.71
2023-02-16T21:25:09.158Z,32.89
2023-02-16T21:27:38.318Z,33.54
2023-02-16T21:30:10.846Z,33.31
2023-02-16T21:32:39.621Z,33.58
2023-02-16T21:35:10.080Z,33.39
2023-02-16T21:37:39.451Z,33.35
2023-02-16T21:40:28.055Z,33.69
2023-02-16T21:43:05.255Z,33.50
2023-02-16T21:45:33.685Z,33.69
2023-02-16T21:48:19.776Z,33.87
2023-02-16T21:50:49.562Z,33.42
2023-02-16T21:53:18.154Z,33.56
2023-02-16T21:56:04.744Z,33.81
2023-02-16T21:58:36.932Z,33.51
2023-02-16T22:01:05.512Z,34.08
2023-02-16T22:03:34.430Z,34.16
2023-02-16T22:06:05.201Z,34.23
2023-02-16T22:08:34.813Z,33.00
2023-02-16T22:11:08.863Z,34.01
2023-02-16T22:13:38.442Z,34.08
2023-02-16T22:16:11.487Z,33.89
2023-02-16T22:18:40.981Z,34.32
2023-02-16T22:21:10.738Z,34.32
2023-02-16T22:23:40.563Z,34.59
2023-02-16T22:26:09.434Z,34.46
2023-02-16T22:28:38.481Z,34.70
2023-02-16T22:31:08.484Z,34.41
2023-02-16T22:33:37.171Z,34.31
2023-02-16T22:36:14.027Z,34.12
2023-02-16T22:38:42.750Z,34.35
2023-02-16T22:41:12.590Z,34.41
2023-02-16T22:43:42.141Z,34.39
2023-02-16T22:46:14.102Z,34.45
2023-02-16T22:48:42.850Z,34.16
2023-02-16T22:51:14.510Z,34.30
2023-02-16T22:53:43.395Z,34.45
2023-02-16T22:56:14.286Z,34.28
2023-02-16T22:58:42.978Z,34.08
2023-02-16T23:01:13.246Z,34.18
2023-02-16T23:03:43.000Z,34.23
2023-02-16T23:06:17.428Z,33.62
2023-02-16T23:08:46.897Z,34.21
2023-02-16T23:11:15.248Z,34.21
2023-02-16T23:13:43.812Z,34.31
2023-02-16T23:16:14.422Z,34.13
2023-02-16T23:18:44.148Z,34.24
2023-02-16T23:21:18.295Z,33.91
2023-02-16T23:23:47.449Z,34.56
2023-02-16T23:26:16.310Z,34.37
2023-02-16T23:28:45.711Z,34.51
2023-02-16T23:31:14.234Z,34.69
2023-02-16T23:33:43.200Z,34.70
2023-02-16T23:36:11.847Z,34.72
2023-02-16T23:38:41.927Z,34.51
2023-02-16T23:41:12.724Z,34.53
2023-02-16T23:43:41.755Z,34.65
2023-02-16T23:46:11.221Z,34.37
2023-02-16T23:48:40.108Z,34.52
2023-02-16T23:51:10.549Z,34.65
2023-02-16T23:53:41.823Z,34.27
2023-02-16T23:56:13.304Z,34.37
2023-02-16T23:58:42.955Z,34.41
